Time;durP1;ratioP1;P1;durP2;ratioP2;P2;SDS_P1;SDS_P2;PMS_P1;PMS_P2;Temp;Humidity;BMP_temperature;BMP_pressure;BME280_temperature;BME280_humidity;BME280_pressure;Samples;Min_cycle;Max_cycle;Signal;HPM_P1;HPM_P2
2023/12/02 00:01:17;;;;;;;9.03;1.70;;;16.50;81.80;;;16.66;50.78;94283.03;4980102;28;21122;-59
2023/12/02 00:03:45;;;;;;;13.93;2.93;;;16.50;82.30;;;16.67;50.98;94293.44;4982929;28;20471;-60
2023/12/02 00:06:12;;;;;;;11.47;2.10;;;16.50;81.90;;;16.67;50.84;94289.97;4979653;28;20459;-71
2023/12/02 00:08:40;;;;;;;3.33;1.20;;;16.40;81.50;;;16.68;50.77;94291.59;4981302;28;20565;-73
2023/12/02 00:11:07;;;;;;;7.87;1.80;;;16.50;81.60;;;16.69;50.72;94282.63;4983119;28;20513;-73
2023/12/02 00:13:35;;;;;;;6.00;1.70;;;16.50;81.70;;;16.69;50.77;94279.97;4980475;28;20833;-60
2023/12/02 00:16:02;;;;;;;4.70;2.10;;;16.50;81.30;;;16.71;50.88;94272.63;4984859;28;20708;-60
2023/12/02 00:18:31;;;;;;;4.30;1.60;;;16.50;81.40;;;16.71;50.45;94271.81;4980454;28;20477;-59
2023/12/02 00:20:58;;;;;;;6.23;1.50;;;16.50;81.40;;;16.69;50.38;94269.34;4982873;28;20478;-60
2023/12/02 00:23:25;;;;;;;12.73;1.47;;;16.50;81.30;;;16.69;50.46;94261.41;4983502;28;20450;-60
2023/12/02 00:25:53;;;;;;;4.23;1.30;;;16.50;81.40;;;16.70;50.38;94259.53;4980559;28;20463;-73
2023/12/02 00:28:20;;;;;;;10.00;1.30;;;16.50;81.40;;;16.69;50.26;94257.94;4981346;28;20494;-73
2023/12/02 00:30:48;;;;;;;6.77;1.47;;;16.50;81.10;;;16.67;50.54;94255.47;4981233;28;20636;-73
2023/12/02 00:33:15;;;;;;;7.50;2.43;;;16.50;81.10;;;16.67;50.10;94253.63;4984137;28;20889;-61
2023/12/02 00:35:44;;;;;;;5.27;1.73;;;16.50;80.80;;;16.66;50.40;94249.31;4981054;28;20475;-74
2023/12/02 00:38:11;;;;;;;3.73;1.33;;;16.50;80.70;;;16.67;50.41;94258.13;4981258;28;20959;-59
2023/12/02 00:40:38;;;;;;;1.93;1.17;;;16.40;80.30;;;16.69;50.05;94250.78;4983876;28;20467;-75
2023/12/02 00:43:06;;;;;;;3.90;1.47;;;16.50;80.30;;;16.70;49.93;94249.78;4980897;28;20465;-59
2023/12/02 00:45:33;;;;;;;4.10;1.50;;;16.50;80.20;;;16.72;49.98;94260.19;4982940;28;21184;-62
2023/12/02 00:48:00;;;;;;;4.47;1.20;;;16.50;80.00;;;16.72;50.10;94255.69;4981057;28;20498;-75
2023/12/02 00:50:28;;;;;;;4.27;1.33;;;16.50;80.00;;;16.73;49.81;94249.38;4979927;28;20915;-73
2023/12/02 00:52:56;;;;;;;6.80;1.30;;;16.50;79.30;;;16.74;49.46;94251.00;4981357;28;20463;-75
2023/12/02 00:55:24;;;;;;;9.80;1.43;;;16.50;79.30;;;16.74;48.90;94250.19;4980242;28;20498;-73
2023/12/02 00:57:51;;;;;;;5.43;1.30;;;16.50;78.20;;;16.76;48.93;94230.41;4981625;28;20505;-59
2023/12/02 01:00:19;;;;;;;7.03;1.53;;;16.50;78.20;;;16.78;48.72;94220.41;4979566;28;20490;-78
2023/12/02 01:02:46;;;;;;;11.50;1.67;;;16.60;78.30;;;16.81;49.45;94212.03;4982160;28;20454;-61
2023/12/02 01:05:14;;;;;;;4.93;1.90;;;16.60;78.60;;;16.83;49.16;94212.66;4979511;28;20517;-73
2023/12/02 01:07:41;;;;;;;4.43;1.20;;;16.60;78.10;;;16.87;48.78;94222.94;4984879;28;20525;-60
2023/12/02 01:10:12;;;;;;;6.17;1.30;;;16.60;77.70;;;16.90;48.78;94210.09;4983382;28;20474;-60
2023/12/02 01:12:40;;;;;;;1.53;0.80;;;16.70;77.40;;;16.94;48.51;94221.16;4975353;28;20658;-74
2023/12/02 01:15:08;;;;;;;10.00;1.30;;;16.70;77.20;;;16.97;47.51;94218.91;4982205;28;20982;-73
2023/12/02 01:17:35;;;;;;;9.70;1.37;;;16.80;76.00;;;17.00;47.65;94197.25;4980788;28;20455;-74
2023/12/02 01:20:03;;;;;;;3.27;1.10;;;16.70;76.30;;;17.05;47.71;94203.84;4981482;28;20469;-60
2023/12/02 01:22:30;;;;;;;2.83;1.20;;;16.80;75.50;;;17.09;47.23;94211.22;4979913;28;20462;-60
2023/12/02 01:24:57;;;;;;;11.73;1.70;;;16.80;74.90;;;17.11;47.43;94195.88;4981634;28;20553;-73
2023/12/02 01:27:26;;;;;;;6.67;1.30;;;16.90;75.80;;;17.15;47.50;94207.78;4981993;28;20462;-60
2023/12/02 01:29:53;;;;;;;7.97;1.30;;;16.90;74.80;;;17.18;47.21;94207.38;4980284;28;20479;-59
2023/12/02 01:32:21;;;;;;;4.40;1.30;;;17.00;74.70;;;17.22;46.72;94204.34;4980760;28;20516;-72
2023/12/02 01:34:48;;;;;;;5.63;1.50;;;17.00;74.00;;;17.25;46.74;94209.25;4981070;28;21174;-59
2023/12/02 01:37:15;;;;;;;3.77;2.00;;;17.00;74.10;;;17.28;46.86;94203.53;4981310;28;20464;-74
2023/12/02 01:39:43;;;;;;;6.60;1.10;;;17.00;73.90;;;17.29;47.00;94181.25;4982904;28;20475;-59
2023/12/02 01:42:10;;;;;;;2.50;1.20;;;17.00;73.70;;;17.30;46.45;94180.22;4984763;28;20869;-73
2023/12/02 01:44:39;;;;;;;7.07;1.00;;;17.10;72.90;;;17.33;46.08;94158.56;4982590;28;20474;-59
2023/12/02 01:47:06;;;;;;;7.00;1.00;;;17.10;72.60;;;17.34;45.44;94173.50;4985036;28;20447;-71
2023/12/02 01:49:33;;;;;;;9.00;1.17;;;17.10;71.80;;;17.36;45.77;94172.28;4986325;28;21029;-72
2023/12/02 01:52:01;;;;;;;5.53;1.73;;;17.10;72.20;;;17.41;45.71;94170.88;4990803;28;20458;-70
2023/12/02 01:54:28;;;;;;;3.27;1.00;;;17.10;71.90;;;17.44;45.21;94163.31;4981780;28;20529;-59
2023/12/02 01:56:55;;;;;;;1.80;1.10;;;17.10;70.40;;;17.46;45.19;94171.91;4982966;28;20462;-72
2023/12/02 01:59:23;;;;;;;2.13;1.20;;;17.20;70.90;;;17.51;45.53;94166.81;4986726;28;20486;-61
2023/12/02 02:01:51;;;;;;;3.73;1.13;;;17.20;71.30;;;17.53;43.46;94162.09;4982704;28;20452;-73
2023/12/02 02:04:19;;;;;;;7.03;1.77;;;17.30;68.00;;;17.59;44.68;94141.88;4985623;28;20476;-72
2023/12/02 02:06:46;;;;;;;2.70;1.10;;;17.30;68.80;;;17.64;44.07;94154.56;4982395;28;21221;-71
2023/12/02 02:09:13;;;;;;;5.57;1.90;;;17.30;68.20;;;17.66;43.46;94160.50;4982061;28;20498;-59
2023/12/02 02:11:41;;;;;;;3.20;0.97;;;17.40;67.90;;;17.71;42.94;94158.09;4981730;28;20494;-68
2023/12/02 02:14:08;;;;;;;5.40;1.10;;;17.50;67.30;;;17.78;41.76;94150.91;4973934;28;20542;-66
2023/12/02 02:16:35;;;;;;;5.57;1.30;;;17.50;64.40;;;17.92;42.01;94136.66;4986838;28;20481;-68
2023/12/02 02:19:04;;;;;;;4.83;1.20;;;17.60;65.00;;;18.06;42.26;94128.66;4982156;28;21092;-70
2023/12/02 02:21:33;;;;;;;3.73;1.00;;;17.80;65.70;;;18.14;41.26;94133.81;4984905;28;20517;-60
2023/12/02 02:24:00;;;;;;;10.60;1.70;;;17.90;64.40;;;18.21;41.37;94139.94;4982333;28;20475;-69
2023/12/02 02:26:28;;;;;;;5.50;1.43;;;17.90;64.00;;;18.27;42.34;94132.97;4983896;28;20512;-62
2023/12/02 02:28:55;;;;;;;3.50;1.00;;;18.00;64.50;;;18.29;41.93;94130.91;4986353;28;20572;-71
2023/12/02 02:31:22;;;;;;;4.63;1.47;;;18.00;64.60;;;18.28;42.32;94130.09;4983674;28;20455;-60
2023/12/02 02:33:50;;;;;;;6.20;1.07;;;18.00;65.00;;;18.27;42.34;94143.63;4983714;28;20485;-61
2023/12/02 02:36:17;;;;;;;4.27;1.10;;;18.00;65.70;;;18.24;42.43;94147.50;4983093;28;20492;-72
2023/12/02 02:38:46;;;;;;;3.23;1.07;;;18.00;66.20;;;18.20;43.08;94137.47;4983632;28;21057;-61
2023/12/02 02:41:13;;;;;;;3.40;1.20;;;18.00;66.30;;;18.16;43.38;94115.78;4982859;28;20448;-68
2023/12/02 02:43:40;;;;;;;5.07;1.10;;;17.90;66.60;;;18.13;43.27;94134.00;4987288;28;20550;-61
2023/12/02 02:46:08;;;;;;;3.47;1.20;;;17.90;67.00;;;18.08;43.41;94130.13;4984847;28;20466;-68
2023/12/02 02:48:35;;;;;;;7.10;1.13;;;17.90;66.60;;;18.06;43.04;94131.31;4982893;28;20947;-66
2023/12/02 02:51:02;;;;;;;6.23;1.53;;;17.80;66.80;;;18.05;44.09;94129.72;4982272;28;20456;-70
2023/12/02 02:53:30;;;;;;;3.00;1.30;;;17.80;67.50;;;18.02;43.50;94130.13;4981999;28;20451;-61
2023/12/02 02:55:58;;;;;;;5.03;1.87;;;17.80;67.70;;;17.98;43.05;94120.91;4983581;28;20528;-68
2023/12/02 02:58:29;;;;;;;6.97;1.20;;;17.70;67.20;;;17.96;43.69;94131.75;4982046;28;20842;-62
2023/12/02 03:00:56;;;;;;;2.40;1.50;;;17.70;67.10;;;17.92;43.32;94111.88;4987499;28;20522;-59
2023/12/02 03:03:24;;;;;;;9.00;1.60;;;17.70;67.10;;;17.90;44.02;94112.09;4980756;28;21176;-62
2023/12/02 03:05:51;;;;;;;4.90;1.30;;;17.70;67.60;;;17.87;43.65;94117.78;4984752;28;20564;-69
2023/12/02 03:08:18;;;;;;;4.10;1.20;;;17.70;67.10;;;17.86;44.02;94108.19;4981014;28;20490;-60
2023/12/02 03:10:48;;;;;;;2.50;1.00;;;17.70;67.60;;;17.84;44.12;94099.56;4977646;28;20475;-62
2023/12/02 03:13:17;;;;;;;3.97;1.37;;;17.60;67.60;;;17.82;43.77;94114.91;4981153;28;20530;-67
2023/12/02 03:15:44;;;;;;;2.50;1.30;;;17.60;68.10;;;17.80;44.14;94116.97;4983456;28;20475;-63
2023/12/02 03:18:11;;;;;;;3.40;2.07;;;17.60;68.50;;;17.77;44.47;94124.50;4981466;28;20452;-68
2023/12/02 03:20:39;;;;;;;7.27;0.93;;;17.60;68.70;;;17.75;44.46;94116.75;4983084;28;20548;-68
2023/12/02 03:23:06;;;;;;;9.53;1.57;;;17.50;68.40;;;17.73;44.54;94118.78;4981503;28;20881;-61
2023/12/02 03:25:34;;;;;;;16.33;1.63;;;17.50;68.70;;;17.71;44.28;94107.56;4983290;28;20847;-62
2023/12/02 03:28:01;;;;;;;9.87;1.07;;;17.50;68.60;;;17.69;44.38;94085.63;4982082;28;20454;-69
2023/12/02 03:30:30;;;;;;;6.70;1.40;;;17.50;68.70;;;17.68;44.34;94102.63;4983033;28;20521;-68
2023/12/02 03:32:57;;;;;;;9.17;1.60;;;17.40;68.40;;;17.67;44.89;94095.66;4983064;28;20451;-62
2023/12/02 03:35:24;;;;;;;5.53;1.40;;;17.40;68.70;;;17.65;44.52;94108.34;4981738;28;20507;-68
2023/12/02 03:37:52;;;;;;;5.10;1.73;;;17.40;68.30;;;17.62;44.37;94111.41;4981853;28;20455;-63
2023/12/02 03:40:19;;;;;;;6.70;1.17;;;17.40;68.60;;;17.60;44.56;94114.28;4980151;28;20483;-62
2023/12/02 03:42:46;;;;;;;5.70;1.13;;;17.40;69.30;;;17.56;45.19;94132.47;4981724;28;20451;-67
2023/12/02 03:45:13;;;;;;;3.33;1.70;;;17.30;70.50;;;17.52;45.10;94122.41;4982319;28;20471;-70
2023/12/02 03:47:42;;;;;;;8.33;2.70;;;17.30;70.20;;;17.50;45.71;94125.28;4981516;28;20463;-60
2023/12/02 03:50:10;;;;;;;3.80;1.30;;;17.30;70.50;;;17.48;45.49;94129.19;4982436;28;20533;-68
2023/12/02 03:52:38;;;;;;;9.00;1.90;;;17.20;70.40;;;17.48;44.71;94103.41;4982277;28;20526;-68
2023/12/02 03:55:07;;;;;;;7.97;1.67;;;17.20;68.60;;;17.52;43.35;94128.59;4982640;28;20486;-62
2023/12/02 03:57:34;;;;;;;5.03;1.00;;;17.30;66.80;;;17.59;44.02;94114.47;4979868;28;20562;-62
2023/12/02 04:00:06;;;;;;;6.50;1.20;;;17.30;67.70;;;17.63;43.97;94116.53;4983953;28;21157;-66
2023/12/02 04:02:33;;;;;;;2.40;1.23;;;17.40;68.60;;;17.65;44.52;94103.03;4981010;28;20483;-68
2023/12/02 04:05:02;;;;;;;2.00;1.07;;;17.40;68.20;;;17.62;44.25;94122.88;4982713;28;20475;-62
2023/12/02 04:07:30;;;;;;;2.13;1.27;;;17.40;69.30;;;17.61;44.81;94099.13;4980545;28;20452;-60
2023/12/02 04:09:57;;;;;;;4.60;1.40;;;17.40;68.90;;;17.60;44.67;94100.16;4982456;28;20500;-67
2023/12/02 04:12:24;;;;;;;9.00;1.30;;;17.40;68.90;;;17.59;44.35;94112.63;4980531;28;20456;-61
2023/12/02 04:14:51;;;;;;;7.10;1.50;;;17.30;68.60;;;17.61;43.86;94104.44;4982232;28;20554;-66
2023/12/02 04:17:19;;;;;;;2.43;1.13;;;17.30;67.50;;;17.63;44.62;94097.09;4979300;28;20459;-61
2023/12/02 04:19:47;;;;;;;8.77;1.97;;;17.40;68.10;;;17.66;44.54;94088.69;4980881;28;20475;-65
2023/12/02 04:22:16;;;;;;;3.00;1.40;;;17.40;68.00;;;17.66;44.38;94070.91;4981941;28;20844;-62
2023/12/02 04:24:43;;;;;;;10.00;2.47;;;17.40;68.00;;;17.65;43.85;94082.56;4982182;28;20468;-67
2023/12/02 04:27:11;;;;;;;9.07;1.73;;;17.40;68.00;;;17.65;44.60;94071.94;4980781;28;20455;-66
2023/12/02 04:29:41;;;;;;;4.00;2.10;;;17.40;68.20;;;17.61;44.82;94076.00;4981310;28;20494;-61
2023/12/02 04:32:09;;;;;;;1.80;1.30;;;17.40;68.40;;;17.56;44.37;94058.00;4978952;28;20909;-63
2023/12/02 04:34:36;;;;;;;5.90;1.33;;;17.30;68.40;;;17.50;44.64;94064.13;4980250;28;20575;-67
2023/12/02 04:37:04;;;;;;;4.33;1.90;;;17.30;68.40;;;17.44;44.97;94059.63;4982407;28;20530;-65
2023/12/02 04:39:33;;;;;;;11.73;1.80;;;17.20;68.60;;;17.41;44.59;94064.53;4979723;28;20463;-67
2023/12/02 04:42:01;;;;;;;9.70;1.30;;;17.20;68.90;;;17.37;44.60;94048.19;4982342;28;20512;-63
2023/12/02 04:44:28;;;;;;;3.70;1.17;;;17.10;69.00;;;17.36;44.95;94057.97;4979414;28;20482;-66
2023/12/02 04:46:55;;;;;;;1.67;1.00;;;17.10;69.10;;;17.36;44.55;94030.59;4982936;28;20839;-63
2023/12/02 04:49:23;;;;;;;14.70;1.30;;;17.10;67.80;;;17.42;44.32;94040.41;4978627;28;20887;-66
2023/12/02 04:51:50;;;;;;;4.53;2.07;;;17.20;67.70;;;17.45;42.83;94055.97;4979652;28;20543;-67
2023/12/02 04:54:17;;;;;;;3.67;1.40;;;17.20;66.40;;;17.52;43.59;94048.81;4982269;28;20481;-61
2023/12/02 04:56:46;;;;;;;9.90;0.97;;;17.20;66.40;;;17.60;42.90;94031.84;4980195;28;20490;-63
2023/12/02 04:59:13;;;;;;;12.43;1.50;;;17.30;65.80;;;17.66;43.27;94054.13;4981765;28;20486;-63
2023/12/02 05:01:41;;;;;;;6.63;2.07;;;17.40;66.10;;;17.68;43.96;94060.88;4978431;28;20462;-62
2023/12/02 05:04:08;;;;;;;11.27;2.20;;;17.40;67.00;;;17.61;43.77;94043.28;4981703;28;20999;-67
2023/12/02 05:06:35;;;;;;;14.47;2.93;;;17.40;66.50;;;17.56;43.09;94052.69;4979569;28;20451;-65
2023/12/02 05:09:04;;;;;;;6.50;1.73;;;17.30;66.10;;;17.58;42.94;94028.56;4981770;28;20593;-67
2023/12/02 05:11:31;;;;;;;6.47;2.53;;;17.30;66.00;;;17.62;43.06;94039.63;4980097;28;20460;-67
2023/12/02 05:14:01;;;;;;;8.37;1.00;;;17.40;65.70;;;17.67;42.90;94047.78;4980321;28;20474;-66
2023/12/02 05:16:28;;;;;;;6.00;1.53;;;17.40;65.20;;;17.74;41.58;94011.38;4980667;28;20458;-63
2023/12/02 05:18:55;;;;;;;25.73;3.00;;;17.50;64.00;;;17.83;41.56;94019.97;4980306;28;20470;-67
2023/12/02 05:21:23;;;;;;;1.87;1.03;;;17.50;63.40;;;17.91;41.72;94020.63;4980965;28;20456;-63
2023/12/02 05:23:50;;;;;;;7.33;1.20;;;17.60;62.90;;;17.98;41.38;94027.78;4980468;28;20467;-61
2023/12/02 05:26:17;;;;;;;11.30;1.60;;;17.70;62.90;;;18.02;41.91;94031.66;4980372;28;20455;-62
2023/12/02 05:28:45;;;;;;;3.73;1.23;;;17.80;63.30;;;18.07;41.54;94037.97;4983326;28;20478;-70
2023/12/02 05:31:13;;;;;;;4.97;2.37;;;17.80;62.60;;;18.11;41.41;94046.41;4981301;28;20518;-63
2023/12/02 05:33:41;;;;;;;4.30;1.30;;;17.80;62.90;;;18.12;41.53;94045.34;4977980;28;20525;-67
2023/12/02 05:36:11;;;;;;;3.63;1.27;;;17.80;62.80;;;18.13;41.30;94044.34;4981656;28;20521;-66
2023/12/02 05:38:39;;;;;;;3.80;1.50;;;17.90;62.90;;;18.14;42.13;94048.63;4978622;28;20451;-63
2023/12/02 05:41:07;;;;;;;3.83;1.37;;;17.90;63.50;;;18.15;40.56;94055.59;4981907;28;20471;-63
2023/12/02 05:43:34;;;;;;;5.80;1.97;;;17.90;61.70;;;18.19;41.01;94051.50;4982235;28;20800;-64
2023/12/02 05:46:02;;;;;;;9.03;1.30;;;17.90;62.20;;;18.21;41.16;94028.13;4978264;28;20459;-66
2023/12/02 05:48:30;;;;;;;2.30;1.20;;;17.90;62.70;;;18.23;41.41;94010.13;4974068;28;20455;-62
2023/12/02 05:50:58;;;;;;;4.33;1.30;;;17.90;62.90;;;18.25;41.39;94012.59;4978950;28;20866;-63
2023/12/02 05:53:26;;;;;;;3.50;1.40;;;18.00;62.70;;;18.25;41.86;93997.44;4981720;28;20833;-66
2023/12/02 05:55:53;;;;;;;17.17;1.40;;;18.00;62.70;;;18.26;41.06;94009.72;4979253;28;20455;-66
2023/12/02 05:58:20;;;;;;;4.83;1.73;;;18.00;62.60;;;18.25;41.46;94013.41;4981168;28;20516;-66
2023/12/02 06:00:47;;;;;;;10.00;5.63;;;18.00;62.80;;;18.24;41.37;94025.06;4979236;28;20822;-66
2023/12/02 06:03:15;;;;;;;4.70;2.17;;;18.00;62.40;;;18.24;40.99;94045.53;4980137;28;20514;-63
2023/12/02 06:05:43;;;;;;;18.43;2.47;;;17.90;61.50;;;18.23;41.58;94023.44;4979423;28;20475;-66
2023/12/02 06:08:11;;;;;;;7.30;1.50;;;18.00;62.20;;;18.25;40.97;94036.53;4980356;28;21030;-61
2023/12/02 06:10:38;;;;;;;6.47;1.40;;;18.00;62.10;;;18.24;41.32;94022.41;4980066;28;20970;-64
2023/12/02 06:13:06;;;;;;;7.13;2.13;;;18.00;62.00;;;18.24;41.46;94032.25;4980001;28;20469;-61
2023/12/02 06:15:33;;;;;;;3.73;1.80;;;18.00;62.10;;;18.24;40.68;94038.38;4979527;28;20478;-65
2023/12/02 06:18:02;;;;;;;5.47;1.90;;;18.00;61.30;;;18.27;40.67;94039.81;4980486;28;20455;-65
2023/12/02 06:20:29;;;;;;;8.93;1.93;;;18.00;60.90;;;18.31;40.06;94046.38;4980454;28;20470;-64
2023/12/02 06:22:58;;;;;;;4.30;1.70;;;18.00;60.20;;;18.34;39.87;94037.13;4979556;28;20480;-65
2023/12/02 06:25:26;;;;;;;7.30;1.20;;;18.00;60.10;;;18.36;39.94;94051.06;4980832;28;20482;-63
2023/12/02 06:27:53;;;;;;;3.20;1.40;;;18.10;60.60;;;18.38;40.57;94047.16;4982120;28;20451;-66
2023/12/02 06:30:21;;;;;;;5.70;1.77;;;18.10;60.90;;;18.37;40.66;94058.84;4985055;28;20497;-66
2023/12/02 06:32:48;;;;;;;8.00;1.63;;;18.10;60.70;;;18.35;40.85;94055.56;4980983;28;20466;-66
2023/12/02 06:35:16;;;;;;;7.53;1.77;;;18.10;61.10;;;18.31;40.74;94050.84;4984549;28;20905;-62
2023/12/02 06:37:44;;;;;;;5.43;1.97;;;18.00;60.90;;;18.23;40.54;94067.84;4981921;28;20462;-65
2023/12/02 06:40:13;;;;;;;7.33;1.80;;;18.00;61.30;;;18.17;40.73;94077.50;4984989;28;20478;-62
2023/12/02 06:42:41;;;;;;;5.73;1.20;;;17.90;61.60;;;18.12;41.38;94090.59;4985431;28;20454;-62
2023/12/02 06:45:09;;;;;;;3.40;1.80;;;17.80;61.80;;;18.08;40.66;94076.09;4981579;28;20479;-68
2023/12/02 06:47:37;;;;;;;4.07;1.93;;;17.80;61.20;;;18.05;41.51;94087.94;4984604;28;20462;-67
2023/12/02 06:50:05;;;;;;;14.20;1.77;;;17.80;61.60;;;18.04;41.11;94090.81;4982070;28;20506;-63
2023/12/02 06:52:33;;;;;;;13.90;1.50;;;17.80;62.00;;;18.04;41.63;94085.50;4984111;28;20459;-64
2023/12/02 06:55:00;;;;;;;7.87;1.83;;;17.80;62.00;;;18.03;41.28;94058.06;4984057;28;20476;-67
2023/12/02 06:57:29;;;;;;;5.57;2.20;;;17.80;61.50;;;18.03;40.79;94087.34;4985085;28;20537;-66
2023/12/02 06:59:56;;;;;;;5.20;1.63;;;17.80;60.30;;;18.05;40.75;94085.28;4983428;28;20900;-62
2023/12/02 07:02:24;;;;;;;11.27;4.77;;;17.80;60.70;;;18.09;40.38;94091.00;4984084;28;20451;-65
2023/12/02 07:04:52;;;;;;;8.57;1.77;;;17.80;60.20;;;18.13;40.36;94084.25;4981952;28;20551;-63
2023/12/02 07:07:19;;;;;;;4.53;2.13;;;17.80;60.30;;;18.15;40.57;94086.72;4982777;28;20459;-66
2023/12/02 07:09:47;;;;;;;3.93;1.37;;;17.90;60.40;;;18.17;40.08;94087.31;4983188;28;20531;-65
2023/12/02 07:12:14;;;;;;;8.03;2.40;;;17.90;60.00;;;18.17;40.36;94084.66;4982958;28;20442;-66
2023/12/02 07:14:43;;;;;;;11.43;1.70;;;17.90;61.10;;;18.16;40.06;94075.06;4982514;28;20479;-65
2023/12/02 07:17:11;;;;;;;8.47;1.77;;;17.90;60.20;;;18.16;40.81;94083.84;4982296;28;20455;-66
2023/12/02 07:19:39;;;;;;;4.27;1.77;;;17.90;60.40;;;18.18;40.74;94075.66;4983470;28;20482;-65
2023/12/02 07:22:06;;;;;;;5.17;1.90;;;17.90;60.20;;;18.19;40.34;94078.09;4981759;28;20539;-65
2023/12/02 07:24:33;;;;;;;12.03;2.03;;;17.90;59.50;;;18.20;39.73;94079.75;4984332;28;20859;-65
2023/12/02 07:27:01;;;;;;;14.10;6.30;;;17.90;59.50;;;18.22;39.55;94080.34;4981102;28;20455;-61
2023/12/02 07:29:28;;;;;;;7.13;1.63;;;17.90;58.90;;;18.25;38.46;94095.91;4984271;28;20819;-65
2023/12/02 07:31:57;;;;;;;5.53;1.90;;;18.00;58.70;;;18.27;40.04;94085.06;4980504;28;20463;-64
2023/12/02 07:34:24;;;;;;;6.63;1.83;;;18.00;59.40;;;18.27;39.82;94075.22;4982268;28;20837;-61
2023/12/02 07:36:52;;;;;;;3.83;1.90;;;18.00;59.50;;;18.30;39.92;94086.50;4980057;28;20455;-62
2023/12/02 07:39:19;;;;;;;5.37;1.80;;;18.00;59.60;;;18.30;39.17;94083.84;4980689;28;20481;-63
2023/12/02 07:41:47;;;;;;;12.57;1.83;;;18.00;59.00;;;18.28;39.31;94084.84;4983985;28;20455;-66
2023/12/02 07:44:14;;;;;;;4.70;2.50;;;18.00;59.00;;;18.30;39.34;94083.84;4980909;28;20476;-63
2023/12/02 07:46:41;;;;;;;5.80;3.13;;;18.00;58.90;;;18.27;40.63;94085.06;4984959;28;20450;-61
2023/12/02 07:49:10;;;;;;;9.57;3.30;;;18.00;61.20;;;18.26;41.15;94056.78;4981425;28;21008;-70
2023/12/02 07:51:37;;;;;;;3.90;2.40;;;18.00;62.30;;;18.20;41.53;94066.44;4983419;28;20505;-68
2023/12/02 07:54:05;;;;;;;12.97;3.77;;;17.90;62.30;;;18.16;41.59;94051.91;4981550;28;20542;-67
2023/12/02 07:56:32;;;;;;;2.63;1.20;;;17.90;62.90;;;18.13;40.97;94054.97;4982803;28;20977;-65
2023/12/02 07:58:59;;;;;;;13.67;2.60;;;17.90;61.60;;;18.10;40.43;94063.38;4981047;28;21014;-66
2023/12/02 08:01:27;;;;;;;4.83;1.50;;;17.80;60.30;;;18.07;40.33;94056.63;4981362;28;20454;-67
2023/12/02 08:03:56;;;;;;;17.00;3.63;;;17.80;59.50;;;18.07;40.14;94053.94;4980531;28;20612;-66
2023/12/02 08:06:24;;;;;;;5.50;1.27;;;17.80;59.90;;;18.07;39.49;94063.78;4978755;28;20450;-66
2023/12/02 08:08:53;;;;;;;7.43;1.50;;;17.80;59.00;;;18.07;39.03;94079.75;4979742;28;20497;-67
2023/12/02 08:11:21;;;;;;;3.20;1.50;;;17.80;58.10;;;18.09;38.99;94067.88;4982238;28;20483;-60
2023/12/02 08:13:48;;;;;;;23.03;6.63;;;17.80;58.10;;;18.12;39.03;94055.19;4980606;28;20469;-67
2023/12/02 08:16:15;;;;;;;3.70;1.50;;;17.80;58.10;;;18.13;39.08;94072.81;4982609;28;20982;-62
2023/12/02 08:18:43;;;;;;;15.33;2.33;;;17.80;58.40;;;18.15;38.95;94068.09;4980757;28;20574;-67
2023/12/02 08:21:10;;;;;;;7.50;2.00;;;17.90;57.90;;;18.16;39.37;94045.78;4982372;28;20473;-63
2023/12/02 08:23:39;;;;;;;3.67;2.13;;;17.90;58.20;;;18.17;38.55;94042.06;4980159;28;20489;-63
2023/12/02 08:26:07;;;;;;;4.73;1.60;;;17.90;57.90;;;18.16;38.79;94013.84;4982926;28;20967;-64
2023/12/02 08:28:35;;;;;;;6.40;2.10;;;17.90;58.20;;;18.14;39.10;94038.00;4979824;28;20451;-61
2023/12/02 08:31:02;;;;;;;7.40;1.73;;;17.90;58.20;;;18.11;39.55;94033.09;4979290;28;20894;-61
2023/12/02 08:33:29;;;;;;;9.03;2.10;;;17.80;58.50;;;18.10;40.37;94031.44;4973955;28;20451;-63
2023/12/02 08:35:57;;;;;;;15.87;2.30;;;17.80;59.40;;;18.05;40.12;94012.63;4979083;28;20518;-66
2023/12/02 08:38:24;;;;;;;7.40;1.77;;;17.80;59.40;;;18.00;40.21;94005.25;4982473;28;20458;-63
2023/12/02 08:40:53;;;;;;;5.00;1.20;;;17.80;60.00;;;17.99;38.80;94030.22;4979623;28;20447;-68
2023/12/02 08:43:20;;;;;;;12.40;4.30;;;17.70;56.90;;;18.01;39.04;94017.53;4982437;28;20557;-66
2023/12/02 08:45:47;;;;;;;67.13;37.40;;;17.70;58.00;;;18.04;38.79;94025.09;4979555;28;20474;-66
2023/12/02 08:48:15;;;;;;;6.20;2.20;;;17.80;58.10;;;18.03;39.62;94018.16;4981556;28;20533;-65
2023/12/02 08:50:43;;;;;;;7.73;2.47;;;17.80;58.80;;;18.00;39.52;94026.56;4978576;28;20558;-63
2023/12/02 08:53:10;;;;;;;7.00;2.53;;;17.70;58.70;;;17.99;39.55;94034.75;4976136;28;20605;-67
2023/12/02 08:55:38;;;;;;;7.20;2.53;;;17.70;58.10;;;17.95;39.00;94044.16;4980972;28;20649;-66
2023/12/02 08:58:06;;;;;;;8.43;2.60;;;17.70;58.10;;;17.96;39.36;94046.59;4979064;28;20518;-66
2023/12/02 09:00:33;;;;;;;12.23;3.40;;;17.70;58.10;;;17.94;39.18;94040.69;4980506;28;20486;-65
2023/12/02 09:03:01;;;;;;;8.30;2.13;;;17.70;58.60;;;17.94;38.93;94066.44;4979583;28;20482;-62
2023/12/02 09:05:28;;;;;;;8.10;2.47;;;17.70;58.00;;;17.93;38.43;94039.03;4980071;28;20477;-63
2023/12/02 09:07:56;;;;;;;5.67;2.23;;;17.70;57.60;;;17.92;39.28;94040.88;4979588;28;20988;-65
2023/12/02 09:10:23;;;;;;;12.23;2.50;;;17.70;58.00;;;17.95;39.24;94041.47;4980152;28;20541;-65
2023/12/02 09:12:50;;;;;;;7.70;1.67;;;17.70;58.00;;;17.98;38.70;94046.41;4980996;28;20455;-65
2023/12/02 09:15:46;;;;;;;11.60;2.13;;;17.70;57.40;;;18.04;38.14;94053.56;4980147;28;20482;-66
2023/12/02 09:18:14;;;;;;;9.33;1.90;;;17.70;57.30;;;18.08;38.72;94055.59;4940165;28;20475;-65
2023/12/02 09:20:46;;;;;;;6.40;1.90;;;17.80;57.50;;;18.16;39.15;94046.59;4981279;28;20865;-65
2023/12/02 09:23:14;;;;;;;7.63;2.10;;;17.80;58.00;;;18.24;38.99;94049.00;4979031;28;21039;-62
2023/12/02 09:25:42;;;;;;;13.43;1.90;;;17.90;58.20;;;18.34;38.85;94050.44;4982413;28;20481;-62
2023/12/02 09:28:17;;;;;;;6.00;2.23;;;18.00;58.30;;;18.43;38.31;94041.19;4978523;28;20462;-63
2023/12/02 09:31:05;;;;;;;9.47;2.03;;;18.10;57.80;;;18.56;38.32;94037.66;4974831;28;20508;-66
2023/12/02 09:33:33;;;;;;;5.80;1.77;;;18.20;58.00;;;18.67;38.74;94037.03;4977158;28;20452;-66
2023/12/02 09:36:02;;;;;;;3.33;1.53;;;18.30;58.90;;;18.80;38.70;94017.50;4978771;28;20525;-63
2023/12/02 09:38:29;;;;;;;12.50;1.83;;;18.40;58.20;;;18.91;38.76;94011.53;4981572;28;20550;-65
2023/12/02 09:41:28;;;;;;;7.60;1.97;;;18.50;57.70;;;19.07;37.74;94014.75;4979375;28;20463;-61
2023/12/02 09:44:28;;;;;;;5.57;2.23;;;18.70;57.60;;;19.21;37.28;94021.66;4974984;28;20478;-65
2023/12/02 09:47:05;;;;;;;8.43;2.73;;;18.80;57.00;;;19.32;37.25;94033.50;4974422;28;20462;-67
2023/12/02 09:50:03;;;;;;;6.83;2.97;;;18.90;56.70;;;19.40;37.06;94024.41;4981583;28;21054;-67
2023/12/02 09:52:55;;;;;;;6.90;2.07;;;19.00;56.50;;;19.49;37.35;94034.59;4981947;28;20478;-63
2023/12/02 09:55:28;;;;;;;8.83;2.57;;;19.10;56.30;;;19.73;37.23;94028.69;4978413;28;20594;-67
2023/12/02 09:58:01;;;;;;;7.70;1.80;;;19.30;56.70;;;19.90;37.07;94012.97;4982454;28;20874;-67
2023/12/02 10:00:37;;;;;;;5.17;2.20;;;19.50;56.20;;;20.05;36.43;94011.59;4979700;28;20483;-64
2023/12/02 10:03:29;;;;;;;13.40;2.30;;;19.60;56.00;;;20.21;36.26;94023.56;4983051;28;21091;-68
2023/12/02 10:06:07;;;;;;;16.33;3.53;;;19.80;55.80;;;20.28;36.30;94010.16;4978091;28;20881;-62
2023/12/02 10:08:44;;;;;;;9.47;4.13;;;19.90;55.50;;;20.33;36.56;94014.84;4984943;28;20447;-61
2023/12/02 10:11:15;;;;;;;15.03;4.87;;;19.90;56.20;;;20.28;37.26;94018.19;4981810;28;20475;-62
2023/12/02 10:13:45;;;;;;;14.00;5.33;;;19.90;56.50;;;20.29;37.69;93997.63;4984219;28;20508;-68
2023/12/02 10:16:15;;;;;;;21.40;6.60;;;19.90;57.20;;;20.27;37.86;93994.34;4983003;28;20463;-67
2023/12/02 10:18:49;;;;;;;9.47;2.77;;;19.90;57.30;;;20.17;37.56;94014.38;4983720;28;20726;-67
2023/12/02 10:21:19;;;;;;;4.03;2.63;;;19.80;57.00;;;20.05;37.77;93992.09;4987154;28;20481;-67
2023/12/02 10:23:57;;;;;;;14.70;2.80;;;19.70;56.20;;;19.97;38.04;94024.41;4982401;28;20845;-61